createdAt,value
2022-12-18T00:02:15.058Z,40.60
2022-12-18T00:07:22.977Z,29.70
2022-12-18T00:12:30.105Z,27.63
2022-12-18T00:17:37.001Z,31.92
2022-12-18T00:22:45.834Z,35.63
2022-12-18T00:27:52.259Z,31.20
2022-12-18T00:32:59.121Z,26.60
2022-12-18T00:38:08.093Z,32.10
2022-12-18T00:43:16.539Z,33.50
2022-12-18T00:48:23.531Z,24.92
2022-12-18T00:53:31.849Z,34.15
2022-12-18T00:58:38.327Z,32.67
2022-12-18T01:03:46.426Z,36.13
2022-12-18T01:08:54.530Z,32.80
2022-12-18T01:14:01.960Z,26.87
2022-12-18T01:19:08.761Z,32.17
2022-12-18T01:24:16.922Z,28.83
2022-12-18T01:29:23.289Z,39.13
2022-12-18T01:34:29.809Z,39.45
2022-12-18T01:39:37.719Z,31.10
2022-12-18T01:45:08.384Z,29.87
2022-12-18T01:50:19.251Z,29.85
2022-12-18T01:55:32.301Z,32.72
2022-12-18T02:00:38.597Z,31.17
2022-12-18T02:05:53.612Z,27.13
2022-12-18T02:11:10.899Z,32.92
2022-12-18T02:16:27.274Z,38.35
2022-12-18T02:21:48.893Z,36.53
2022-12-18T02:27:02.969Z,32.10
2022-12-18T02:32:16.580Z,31.83
2022-12-18T02:37:24.655Z,33.13
2022-12-18T02:42:35.202Z,39.47
2022-12-18T02:47:48.811Z,27.73
2022-12-18T02:53:17.218Z,31.23
2022-12-18T02:58:35.439Z,30.67
2022-12-18T03:03:54.614Z,34.40
2022-12-18T03:09:06.382Z,32.65
2022-12-18T03:14:18.832Z,30.23
2022-12-18T03:19:32.163Z,34.40
2022-12-18T03:24:40.881Z,28.00
2022-12-18T03:29:54.263Z,30.52
2022-12-18T03:35:08.466Z,24.87
2022-12-18T03:40:17.350Z,32.13
2022-12-18T03:45:34.440Z,31.38
2022-12-18T03:50:50.038Z,30.80
2022-12-18T03:56:02.033Z,34.47
2022-12-18T04:01:18.040Z,29.10
2022-12-18T04:06:25.592Z,29.38
2022-12-18T04:11:32.465Z,35.90
2022-12-18T04:16:42.457Z,22.10
2022-12-18T04:21:53.078Z,31.50
2022-12-18T04:26:59.725Z,24.98
2022-12-18T04:32:13.479Z,24.33
2022-12-18T04:37:22.777Z,28.25
2022-12-18T04:42:30.698Z,21.02
2022-12-18T04:47:38.499Z,26.88
2022-12-18T04:52:44.784Z,31.90
2022-12-18T04:57:53.385Z,26.30
2022-12-18T05:03:03.327Z,26.42
2022-12-18T05:08:10.236Z,28.33
2022-12-18T05:13:17.303Z,28.67
2022-12-18T05:18:25.521Z,25.98
2022-12-18T05:23:31.918Z,25.40
2022-12-18T05:28:39.397Z,28.67
2022-12-18T05:33:47.293Z,24.40
2022-12-18T05:38:54.110Z,26.10
2022-12-18T05:44:01.869Z,27.45
2022-12-18T05:49:09.564Z,28.27
2022-12-18T05:54:15.931Z,36.00
2022-12-18T05:59:22.239Z,27.20
2022-12-18T06:04:30.626Z,32.75
2022-12-18T06:09:37.240Z,33.53
2022-12-18T06:14:43.762Z,37.95
2022-12-18T06:19:51.801Z,28.27
2022-12-18T06:24:58.322Z,42.85
2022-12-18T06:30:04.971Z,44.53
2022-12-18T06:35:13.321Z,37.67
2022-12-18T06:40:20.010Z,42.55
2022-12-18T06:45:26.668Z,40.60
2022-12-18T06:50:34.899Z,42.38
2022-12-18T06:55:41.331Z,42.08
2022-12-18T07:00:48.053Z,39.10
2022-12-18T07:05:55.792Z,41.72
2022-12-18T07:11:02.103Z,45.30
2022-12-18T07:16:17.149Z,45.25
2022-12-18T07:21:29.056Z,45.35
2022-12-18T07:26:35.824Z,45.03
2022-12-18T07:31:42.546Z,42.40
2022-12-18T07:36:50.513Z,45.45
2022-12-18T07:42:14.478Z,42.80
2022-12-18T07:47:20.994Z,42.80
2022-12-18T07:52:28.966Z,43.55
2022-12-18T07:57:50.540Z,37.77
2022-12-18T08:02:57.992Z,35.60
2022-12-18T08:08:06.145Z,38.65
2022-12-18T08:13:12.678Z,41.87
2022-12-18T08:18:19.164Z,36.85
2022-12-18T08:23:39.287Z,43.10
2022-12-18T08:28:49.087Z,39.47
2022-12-18T08:33:57.236Z,42.47
2022-12-18T08:39:05.198Z,40.67
2022-12-18T08:44:29.433Z,35.73
2022-12-18T08:49:36.469Z,42.60
2022-12-18T08:54:44.351Z,40.63
2022-12-18T08:59:50.951Z,43.07
2022-12-18T09:04:57.908Z,42.42
2022-12-18T09:10:07.110Z,41.22
2022-12-18T09:15:14.234Z,43.22
2022-12-18T09:20:20.647Z,33.58
2022-12-18T09:25:33.048Z,38.85
2022-12-18T09:30:41.639Z,41.22
2022-12-18T09:41:01.393Z,36.80
2022-12-18T09:46:13.722Z,40.65
2022-12-18T09:51:27.176Z,41.22
2022-12-18T09:56:40.476Z,43.83
2022-12-18T10:01:47.506Z,38.45
2022-12-18T10:07:08.905Z,43.45
2022-12-18T10:12:26.532Z,38.03
2022-12-18T10:17:45.818Z,37.53
2022-12-18T10:23:04.188Z,43.67
2022-12-18T10:28:16.859Z,41.25
2022-12-18T10:33:26.339Z,47.80
2022-12-18T10:38:34.614Z,41.50
2022-12-18T10:43:43.366Z,46.50
2022-12-18T10:48:57.891Z,43.10
2022-12-18T10:54:09.508Z,47.08
2022-12-18T10:59:20.421Z,46.28
2022-12-18T11:04:29.798Z,46.03
2022-12-18T11:09:38.929Z,41.60
2022-12-18T11:14:51.472Z,52.45
2022-12-18T11:19:59.500Z,47.80
2022-12-18T11:30:40.093Z,43.97
2022-12-18T11:35:52.813Z,44.92
2022-12-18T11:41:06.196Z,35.83
2022-12-18T11:46:20.308Z,45.13
2022-12-18T11:51:37.516Z,42.50
2022-12-18T11:56:50.497Z,49.60
2022-12-18T12:02:06.453Z,52.75
2022-12-18T12:07:32.213Z,46.53
2022-12-18T12:12:56.270Z,48.50
2022-12-18T12:18:16.779Z,45.30
2022-12-18T12:23:36.924Z,36.58
2022-12-18T12:29:24.150Z,39.05
2022-12-18T12:34:41.941Z,43.85
2022-12-18T12:39:50.712Z,30.70
2022-12-18T12:45:01.729Z,65.15
2022-12-18T12:50:21.851Z,38.17
2022-12-18T12:55:31.917Z,42.85
2022-12-18T13:00:52.427Z,42.35
2022-12-18T13:06:05.813Z,47.58
2022-12-18T13:17:32.301Z,52.90
2022-12-18T13:22:44.780Z,51.95
2022-12-18T13:28:12.887Z,54.80
2022-12-18T13:34:24.001Z,44.97
2022-12-18T13:39:43.335Z,54.78
2022-12-18T15:05:02.438Z,57.20
2022-12-18T15:10:16.894Z,52.10
2022-12-18T15:15:51.973Z,54.92
2022-12-18T15:21:11.238Z,64.18
2022-12-18T15:26:26.067Z,56.70
2022-12-18T15:31:39.132Z,61.53
2022-12-18T15:36:49.474Z,55.17
2022-12-18T15:42:14.400Z,64.72
2022-12-18T15:47:23.922Z,66.70
2022-12-18T15:52:38.708Z,72.82
2022-12-18T15:57:47.981Z,62.20
2022-12-18T16:02:57.226Z,65.47
2022-12-18T16:08:09.214Z,64.25
2022-12-18T16:13:25.233Z,72.65
2022-12-18T16:18:34.450Z,74.93
2022-12-18T16:23:47.848Z,61.83
2022-12-18T16:28:57.052Z,65.10
2022-12-18T16:34:28.567Z,68.35
2022-12-18T16:39:40.229Z,70.43
2022-12-18T16:44:49.684Z,60.90
2022-12-18T16:50:00.779Z,68.93
2022-12-18T16:55:16.291Z,61.95
2022-12-18T17:00:29.529Z,64.50
2022-12-18T17:05:42.407Z,60.00
2022-12-18T17:10:52.867Z,62.72
2022-12-18T17:16:07.728Z,63.47
2022-12-18T17:21:18.242Z,63.25
2022-12-18T17:26:43.704Z,68.28
2022-12-18T17:31:54.624Z,67.00
2022-12-18T17:37:07.388Z,61.80
2022-12-18T17:42:20.445Z,66.18
2022-12-18T17:47:31.513Z,71.45
2022-12-18T17:52:41.393Z,61.97
2022-12-18T17:57:53.071Z,59.85
2022-12-18T18:03:05.439Z,66.57
2022-12-18T18:08:15.329Z,71.88
2022-12-18T18:13:47.174Z,61.30
2022-12-18T18:18:56.592Z,64.60
2022-12-18T18:24:06.103Z,57.47
2022-12-18T18:29:19.986Z,56.15
2022-12-18T18:34:31.535Z,54.83
2022-12-18T18:39:44.476Z,61.17
2022-12-18T18:44:56.019Z,59.83
2022-12-18T18:50:07.276Z,53.30
2022-12-18T18:55:25.768Z,67.78
2022-12-18T19:00:37.402Z,53.65
2022-12-18T19:05:47.688Z,59.03
2022-12-18T19:10:58.183Z,60.10
2022-12-18T19:16:11.587Z,49.88
2022-12-18T19:21:22.043Z,48.60
2022-12-18T19:26:31.376Z,43.88
2022-12-18T19:31:42.303Z,50.15
2022-12-18T19:36:53.926Z,47.10
2022-12-18T19:42:07.721Z,47.35
2022-12-18T19:47:18.338Z,44.38
2022-12-18T19:52:27.457Z,47.78
2022-12-18T19:57:36.616Z,46.65
2022-12-18T20:02:47.795Z,52.63
2022-12-18T20:07:59.214Z,53.40
2022-12-18T20:13:08.482Z,46.63
2022-12-18T20:18:18.948Z,51.58
2022-12-18T20:23:29.795Z,47.08
2022-12-18T20:28:41.788Z,48.97
2022-12-18T20:34:01.737Z,60.03
2022-12-18T20:39:12.191Z,50.03
2022-12-18T20:44:24.002Z,49.40
2022-12-18T20:49:36.548Z,52.70
2022-12-18T20:54:45.153Z,42.35
2022-12-18T20:59:51.743Z,42.35
2022-12-18T21:05:00.097Z,41.85
2022-12-18T21:10:10.516Z,35.20
2022-12-18T21:15:17.609Z,42.63
2022-12-18T21:20:26.084Z,31.88
2022-12-18T21:25:32.770Z,38.28
2022-12-18T21:35:49.071Z,29.92
2022-12-18T21:40:56.235Z,30.87
2022-12-18T21:46:03.114Z,40.40
2022-12-18T21:51:11.381Z,31.85
2022-12-18T21:56:17.792Z,28.67
2022-12-18T22:01:24.324Z,27.00
2022-12-18T22:06:42.993Z,30.20
2022-12-18T22:11:50.538Z,29.75
2022-12-18T22:16:57.919Z,30.00
2022-12-18T22:22:06.730Z,31.67
2022-12-18T22:27:13.285Z,28.65
2022-12-18T22:32:30.808Z,35.90
2022-12-18T22:37:39.562Z,32.30
2022-12-18T22:42:46.092Z,28.77
2022-12-18T22:47:52.997Z,37.90
2022-12-18T22:53:01.021Z,34.47
2022-12-18T22:58:07.517Z,30.13
2022-12-18T23:03:14.032Z,30.52
2022-12-18T23:08:21.819Z,29.13
2022-12-18T23:13:29.622Z,24.67
2022-12-18T23:18:36.610Z,25.53
2022-12-18T23:23:45.258Z,24.08
2022-12-18T23:28:53.370Z,26.80
2022-12-18T23:34:01.675Z,25.33
2022-12-18T23:39:10.300Z,28.27
2022-12-18T23:49:22.857Z,27.17
2022-12-18T23:54:33.440Z,23.30
2022-12-18T23:59:40.364Z,23.35
